Time;durP1;ratioP1;P1;durP2;ratioP2;P2;SDS_P1;SDS_P2;PMS_P1;PMS_P2;Temp;Humidity;BMP_temperature;BMP_pressure;BME280_temperature;BME280_humidity;BME280_pressure;Samples;Min_cycle;Max_cycle;Signal;HPM_P1;HPM_P2
2022/04/13 00:01:56;;;;;;;8.55;3.60;;;16.20;71.50;;;;;;5054601;28;20112;-75
2022/04/13 00:04:22;;;;;;;10.23;4.25;;;16.10;71.40;;;;;;5054527;28;20365;-74
2022/04/13 00:06:48;;;;;;;9.70;4.00;;;16.10;71.60;;;;;;5054472;28;20028;-75
2022/04/13 00:09:13;;;;;;;8.82;3.97;;;16.10;71.80;;;;;;5037685;28;20044;-74
2022/04/13 00:11:39;;;;;;;9.15;4.30;;;16.10;72.00;;;;;;5054085;28;20397;-74
2022/04/13 00:14:05;;;;;;;8.40;3.85;;;16.00;72.20;;;;;;5054210;28;20025;-74
2022/04/13 00:16:31;;;;;;;8.27;4.00;;;16.00;72.60;;;;;;5054141;28;20033;-74
2022/04/13 00:18:56;;;;;;;7.35;3.75;;;16.00;72.90;;;;;;5054218;28;20025;-74
2022/04/13 00:21:22;;;;;;;8.52;4.20;;;15.90;72.90;;;;;;5070824;28;20032;-74
2022/04/13 00:23:48;;;;;;;11.95;4.40;;;15.90;72.90;;;;;;5053822;28;20057;-75
2022/04/13 00:26:13;;;;;;;8.65;3.53;;;15.80;72.70;;;;;;5054097;28;20056;-75
2022/04/13 00:28:39;;;;;;;8.00;3.72;;;15.80;72.80;;;;;;5053952;28;20474;-74
2022/04/13 00:31:05;;;;;;;11.13;4.32;;;15.80;73.10;;;;;;5053794;28;20029;-75
2022/04/13 00:33:32;;;;;;;13.43;4.28;;;15.80;73.50;;;;;;5037425;28;20116;-74
2022/04/13 00:35:58;;;;;;;9.63;3.88;;;15.80;73.90;;;;;;5037299;28;20048;-75
2022/04/13 00:38:23;;;;;;;7.20;3.83;;;15.70;74.10;;;;;;5055186;28;20018;-74
2022/04/13 00:40:49;;;;;;;7.25;3.78;;;15.70;74.60;;;;;;5037075;28;20029;-74
2022/04/13 00:43:15;;;;;;;8.60;3.83;;;15.70;75.00;;;;;;5053769;28;20017;-83
2022/04/13 00:45:48;;;;;;;8.77;4.38;;;15.70;75.40;;;;;;5053506;28;20103;-82
2022/04/13 00:48:18;;;;;;;8.02;3.70;;;15.70;75.80;;;;;;5053635;28;20028;-82
2022/04/13 00:50:44;;;;;;;8.70;3.50;;;15.60;76.00;;;;;;5054698;28;20070;-83
2022/04/13 00:53:12;;;;;;;7.80;3.90;;;15.60;76.20;;;;;;5036871;28;20507;-82
2022/04/13 00:55:40;;;;;;;7.05;3.35;;;15.60;76.20;;;;;;5053459;28;20100;-82
2022/04/13 00:58:09;;;;;;;7.07;4.35;;;15.50;76.40;;;;;;5053494;28;20168;-82
2022/04/13 01:00:38;;;;;;;7.85;4.25;;;15.50;76.70;;;;;;5053392;28;20159;-83
2022/04/13 01:03:07;;;;;;;9.88;4.03;;;15.40;76.70;;;;;;5052890;28;20032;-83
2022/04/13 01:05:35;;;;;;;8.45;4.07;;;15.40;76.90;;;;;;5053008;28;20033;-82
2022/04/13 01:08:03;;;;;;;12.77;3.83;;;15.40;77.00;;;;;;5062561;28;20080;-82
2022/04/13 01:10:29;;;;;;;9.02;3.92;;;15.40;77.10;;;;;;5076498;28;20020;-83
2022/04/13 01:12:55;;;;;;;10.85;3.42;;;15.30;77.10;;;;;;5059844;28;20085;-82
2022/04/13 01:15:20;;;;;;;9.13;3.92;;;15.30;76.90;;;;;;5076630;28;20415;-83
2022/04/13 01:17:48;;;;;;;7.95;3.83;;;15.20;76.70;;;;;;5059215;28;20024;-82
2022/04/13 01:20:16;;;;;;;7.63;3.53;;;15.20;76.70;;;;;;5094208;28;20480;-83
2022/04/13 01:22:42;;;;;;;8.20;3.22;;;15.20;76.50;;;;;;5094398;28;20039;-83
2022/04/13 01:25:08;;;;;;;10.02;3.78;;;15.10;76.30;;;;;;5075828;28;20028;-81
2022/04/13 01:27:34;;;;;;;8.00;3.35;;;15.10;76.20;;;;;;5094230;28;20422;-83
2022/04/13 01:29:59;;;;;;;10.48;3.15;;;15.10;76.40;;;;;;5094800;28;20028;-82
2022/04/13 01:32:26;;;;;;;7.30;3.22;;;15.10;76.70;;;;;;5076180;28;20024;-82
2022/04/13 01:34:52;;;;;;;9.98;3.85;;;15.00;76.90;;;;;;5094185;28;20035;-82
2022/04/13 01:37:19;;;;;;;8.73;3.60;;;15.00;77.10;;;;;;5075823;28;20476;-82
2022/04/13 01:39:45;;;;;;;7.85;3.42;;;14.90;77.50;;;;;;5093893;28;20030;-82
2022/04/13 01:42:11;;;;;;;9.23;3.97;;;14.90;77.80;;;;;;5093681;28;20099;-82
2022/04/13 01:44:36;;;;;;;9.13;4.30;;;14.80;78.00;;;;;;5075430;28;20028;-82
2022/04/13 01:47:02;;;;;;;7.88;3.58;;;14.80;78.20;;;;;;5059135;28;20472;-82
2022/04/13 01:49:28;;;;;;;8.30;3.88;;;14.80;78.30;;;;;;5075644;28;20073;-75
2022/04/13 01:51:54;;;;;;;9.02;4.20;;;14.70;78.50;;;;;;5075364;28;20036;-75
2022/04/13 01:54:19;;;;;;;8.02;4.30;;;14.70;78.80;;;;;;5075714;28;20032;-82
2022/04/13 01:56:45;;;;;;;6.60;3.88;;;14.70;79.00;;;;;;5075826;28;20059;-82
2022/04/13 01:59:10;;;;;;;9.43;3.90;;;14.60;79.20;;;;;;5075545;28;20020;-82
2022/04/13 02:01:46;;;;;;;5.60;3.90;;;14.60;79.50;;;;;;5075295;28;20080;-82
2022/04/13 02:04:23;;;;;;;7.18;3.65;;;14.50;79.70;;;;;;5058935;28;20361;-82
2022/04/13 02:06:50;;;;;;;9.10;3.85;;;14.50;79.70;;;;;;5075332;28;20089;-82
2022/04/13 02:09:17;;;;;;;9.40;4.32;;;14.50;79.70;;;;;;5075243;28;20048;-82
2022/04/13 02:11:43;;;;;;;8.38;4.03;;;14.50;79.70;;;;;;5075342;28;20073;-82
2022/04/13 02:14:09;;;;;;;7.75;3.50;;;14.40;79.60;;;;;;5074828;28;20016;-82
2022/04/13 02:16:35;;;;;;;9.68;4.07;;;14.40;79.40;;;;;;5075486;28;20036;-82
2022/04/13 02:19:02;;;;;;;8.88;4.05;;;14.40;79.40;;;;;;5075623;28;20059;-82
2022/04/13 02:21:28;;;;;;;14.95;4.93;;;14.40;79.40;;;;;;5075286;28;20472;-82
2022/04/13 02:23:53;;;;;;;9.90;4.13;;;14.30;79.60;;;;;;5093147;28;20049;-82
2022/04/13 02:26:19;;;;;;;8.45;3.67;;;14.30;79.60;;;;;;5058687;28;20028;-82
2022/04/13 02:28:45;;;;;;;9.52;4.20;;;14.30;79.60;;;;;;5075420;28;20029;-82
2022/04/13 02:31:11;;;;;;;10.30;3.47;;;14.30;79.70;;;;;;5075427;28;20491;-82
2022/04/13 02:33:37;;;;;;;12.10;3.90;;;14.20;79.80;;;;;;5093411;28;20016;-82
2022/04/13 02:36:03;;;;;;;9.38;4.57;;;14.30;79.80;;;;;;5093306;28;20024;-82
2022/04/13 02:38:28;;;;;;;14.93;4.90;;;14.30;79.60;;;;;;5075168;28;20035;-82
2022/04/13 02:40:54;;;;;;;7.13;3.35;;;14.30;79.50;;;;;;5075291;28;20021;-82
2022/04/13 02:43:20;;;;;;;8.25;3.60;;;14.20;79.30;;;;;;5073231;28;20089;-82
2022/04/13 02:45:45;;;;;;;10.98;3.72;;;14.20;79.10;;;;;;5073059;28;20035;-82
2022/04/13 02:48:11;;;;;;;8.82;3.58;;;14.20;79.10;;;;;;5054790;28;20024;-82
2022/04/13 02:50:37;;;;;;;9.55;3.38;;;14.30;79.30;;;;;;5038078;28;20035;-81
2022/04/13 02:53:03;;;;;;;9.40;3.83;;;14.30;79.50;;;;;;5038443;28;20116;-82
2022/04/13 02:55:29;;;;;;;10.30;4.05;;;14.30;79.50;;;;;;5038546;28;20123;-82
2022/04/13 02:57:55;;;;;;;8.52;3.40;;;14.20;79.40;;;;;;5073359;28;20388;-82
2022/04/13 03:00:21;;;;;;;7.65;3.55;;;14.30;79.50;;;;;;5072901;28;20376;-82
2022/04/13 03:02:47;;;;;;;9.25;4.25;;;14.30;79.50;;;;;;5054913;28;20124;-82
2022/04/13 03:05:12;;;;;;;10.95;3.75;;;14.30;79.50;;;;;;5073089;28;20111;-81
2022/04/13 03:07:38;;;;;;;13.63;4.80;;;14.20;79.40;;;;;;5054843;28;20033;-82
2022/04/13 03:10:04;;;;;;;9.23;3.97;;;14.30;79.40;;;;;;5054658;28;20060;-81
2022/04/13 03:12:32;;;;;;;11.38;4.05;;;14.30;79.30;;;;;;5054676;28;20024;-82
2022/04/13 03:14:57;;;;;;;10.52;4.03;;;14.20;79.10;;;;;;5072638;28;20107;-82
2022/04/13 03:17:23;;;;;;;10.02;4.40;;;14.30;79.10;;;;;;5054545;28;20056;-81
2022/04/13 03:19:49;;;;;;;10.07;4.22;;;14.20;79.00;;;;;;5072929;28;20105;-81
2022/04/13 03:22:15;;;;;;;11.25;4.00;;;14.20;79.00;;;;;;5054854;28;20112;-82
2022/04/13 03:24:40;;;;;;;12.38;3.88;;;14.20;79.20;;;;;;5055875;28;20507;-81
2022/04/13 03:27:06;;;;;;;12.13;4.20;;;14.20;79.30;;;;;;5058564;28;20036;-75
2022/04/13 03:29:32;;;;;;;8.95;3.88;;;14.20;79.40;;;;;;5076294;28;20025;-75
2022/04/13 03:31:58;;;;;;;7.85;4.10;;;14.20;79.30;;;;;;5041637;28;20020;-75
2022/04/13 03:34:24;;;;;;;9.13;4.13;;;14.20;79.40;;;;;;5076137;28;20100;-74
2022/04/13 03:36:50;;;;;;;7.70;4.05;;;14.20;79.50;;;;;;5041320;28;20462;-75
2022/04/13 03:39:16;;;;;;;7.30;4.22;;;14.20;79.90;;;;;;5058148;28;20111;-75
2022/04/13 03:41:43;;;;;;;10.75;4.80;;;14.20;80.10;;;;;;5041624;28;20381;-75
2022/04/13 03:44:09;;;;;;;10.05;4.75;;;14.20;80.10;;;;;;5041441;28;20040;-74
2022/04/13 03:46:35;;;;;;;9.73;4.25;;;14.20;80.10;;;;;;5058485;28;20025;-75
2022/04/13 03:49:00;;;;;;;10.73;4.38;;;14.10;80.10;;;;;;5057888;28;20021;-75
2022/04/13 03:51:26;;;;;;;9.32;4.47;;;14.10;80.10;;;;;;5076174;28;20048;-75
2022/04/13 03:53:52;;;;;;;12.93;4.75;;;14.10;80.20;;;;;;5041358;28;20384;-74
2022/04/13 03:56:17;;;;;;;10.60;4.22;;;14.00;80.30;;;;;;5075774;28;20025;-74
2022/04/13 03:58:43;;;;;;;11.07;4.85;;;14.10;80.60;;;;;;5041379;28;20115;-74
2022/04/13 04:01:10;;;;;;;13.20;5.68;;;14.00;80.90;;;;;;5041197;28;20032;-75
2022/04/13 04:03:36;;;;;;;12.35;4.53;;;13.90;81.20;;;;;;5040931;28;20024;-74
2022/04/13 04:06:03;;;;;;;13.02;5.95;;;13.90;81.30;;;;;;5057897;28;20059;-74
2022/04/13 04:08:30;;;;;;;9.82;4.93;;;13.90;81.50;;;;;;5067672;28;20119;-74
2022/04/13 04:10:55;;;;;;;11.18;5.30;;;13.80;81.70;;;;;;5077600;28;20032;-75
2022/04/13 04:13:21;;;;;;;9.57;5.10;;;13.80;81.80;;;;;;5077578;28;20031;-74
2022/04/13 04:15:47;;;;;;;8.35;5.07;;;13.80;82.20;;;;;;5060801;28;20032;-75
2022/04/13 04:18:12;;;;;;;13.55;5.35;;;13.80;82.60;;;;;;5060600;28;20051;-75
2022/04/13 04:20:38;;;;;;;9.90;5.22;;;13.70;82.70;;;;;;5060738;28;20028;-74
2022/04/13 04:23:04;;;;;;;13.15;5.68;;;13.60;82.80;;;;;;5095478;28;20024;-75
2022/04/13 04:25:30;;;;;;;11.88;5.60;;;13.60;83.00;;;;;;5060686;28;20085;-75
2022/04/13 04:27:55;;;;;;;9.25;4.68;;;13.60;83.10;;;;;;5095450;28;20024;-74
2022/04/13 04:30:21;;;;;;;10.32;5.05;;;13.50;83.20;;;;;;5077438;28;20048;-75
2022/04/13 04:32:46;;;;;;;9.05;5.10;;;13.50;83.30;;;;;;5060545;28;20008;-75
2022/04/13 04:35:12;;;;;;;9.10;4.53;;;13.50;83.40;;;;;;5095103;28;20092;-75
2022/04/13 04:37:38;;;;;;;10.02;5.45;;;13.40;83.50;;;;;;5059647;28;20035;-75
2022/04/13 04:40:04;;;;;;;12.38;5.22;;;13.40;83.70;;;;;;5077534;28;20032;-75
2022/04/13 04:42:30;;;;;;;13.38;5.00;;;13.40;83.90;;;;;;5076886;28;20031;-75
2022/04/13 04:44:57;;;;;;;9.27;4.65;;;13.30;84.10;;;;;;5060391;28;20028;-74
2022/04/13 04:47:23;;;;;;;8.02;5.00;;;13.30;84.40;;;;;;5060519;28;20111;-75
2022/04/13 04:49:49;;;;;;;10.15;5.30;;;13.20;84.50;;;;;;5060161;28;20024;-75
2022/04/13 04:52:14;;;;;;;11.68;5.45;;;13.20;84.80;;;;;;5094807;28;20077;-75
2022/04/13 04:54:40;;;;;;;10.40;5.97;;;13.20;85.00;;;;;;5076615;28;20028;-75
2022/04/13 04:57:07;;;;;;;13.30;5.60;;;13.10;85.20;;;;;;5076808;28;20028;-73
2022/04/13 04:59:32;;;;;;;13.25;6.15;;;13.10;85.40;;;;;;5094690;28;20472;-73
2022/04/13 05:01:58;;;;;;;13.93;6.53;;;13.10;85.60;;;;;;5060302;28;20199;-74
2022/04/13 05:04:23;;;;;;;10.65;5.75;;;13.10;85.80;;;;;;5059759;28;20055;-74
2022/04/13 05:06:49;;;;;;;10.68;5.63;;;13.10;86.00;;;;;;5059737;28;20129;-74
2022/04/13 05:09:17;;;;;;;10.25;6.00;;;13.00;86.00;;;;;;5059587;28;20107;-73
2022/04/13 05:11:43;;;;;;;11.70;5.75;;;13.00;86.20;;;;;;5077392;28;20475;-74
2022/04/13 05:14:09;;;;;;;10.45;6.10;;;13.00;86.30;;;;;;5059536;28;20024;-74
2022/04/13 05:16:34;;;;;;;13.25;6.60;;;13.00;86.50;;;;;;5076258;28;20032;-74
2022/04/13 05:19:00;;;;;;;9.93;5.80;;;13.00;86.60;;;;;;5059653;28;20387;-74
2022/04/13 05:21:26;;;;;;;11.05;5.85;;;12.90;86.80;;;;;;5076078;28;20028;-74
2022/04/13 05:23:52;;;;;;;10.52;6.30;;;12.90;87.00;;;;;;5059777;28;20028;-74
2022/04/13 05:26:18;;;;;;;9.07;4.43;;;12.90;87.40;;;;;;5055161;28;20033;-73
2022/04/13 05:28:45;;;;;;;11.70;5.50;;;12.90;87.70;;;;;;5075965;28;20020;-74
2022/04/13 05:31:11;;;;;;;9.15;5.30;;;13.00;87.90;;;;;;5075763;28;20024;-74
2022/04/13 05:33:37;;;;;;;11.80;5.40;;;13.00;88.10;;;;;;5058981;28;20024;-74
2022/04/13 05:36:03;;;;;;;9.43;5.38;;;13.00;88.30;;;;;;5059118;28;20020;-74
2022/04/13 05:38:29;;;;;;;11.43;5.90;;;13.00;88.50;;;;;;5075800;28;20028;-74
2022/04/13 05:40:54;;;;;;;14.70;6.53;;;13.00;88.50;;;;;;5059097;28;20024;-74
2022/04/13 05:43:20;;;;;;;15.00;6.15;;;13.10;88.80;;;;;;5075871;28;20017;-74
2022/04/13 05:45:46;;;;;;;12.20;6.50;;;13.10;88.90;;;;;;5094047;28;20020;-74
2022/04/13 05:48:12;;;;;;;13.52;6.72;;;13.10;89.00;;;;;;5058206;28;20046;-73
2022/04/13 05:50:37;;;;;;;12.70;7.03;;;13.10;89.00;;;;;;5059554;28;20055;-74
2022/04/13 05:53:03;;;;;;;13.32;7.68;;;13.20;89.10;;;;;;5059019;28;20469;-74
2022/04/13 05:55:29;;;;;;;12.77;7.20;;;13.20;89.20;;;;;;5059365;28;20023;-74
2022/04/13 05:57:56;;;;;;;12.45;6.95;;;13.20;89.20;;;;;;5089078;28;20035;-74
2022/04/13 06:00:21;;;;;;;13.63;7.18;;;13.20;89.30;;;;;;5074749;28;20054;-74
2022/04/13 06:02:47;;;;;;;13.85;7.30;;;13.30;89.50;;;;;;5074736;28;20059;-75
2022/04/13 06:05:13;;;;;;;12.00;6.43;;;13.30;89.60;;;;;;5075096;28;20032;-75
2022/04/13 06:07:40;;;;;;;14.05;8.25;;;13.30;89.70;;;;;;5094016;28;20366;-75
2022/04/13 06:10:06;;;;;;;12.82;9.02;;;13.40;89.90;;;;;;5075442;28;20048;-75
2022/04/13 06:12:32;;;;;;;18.02;9.18;;;13.40;89.90;;;;;;5058288;28;20050;-75
2022/04/13 06:15:14;;;;;;;19.65;10.75;;;13.40;90.00;;;;;;5058454;28;20052;-75
2022/04/13 06:17:41;;;;;;;15.13;9.50;;;13.40;90.00;;;;;;5058594;28;20119;-75
2022/04/13 06:20:07;;;;;;;15.90;9.02;;;13.50;90.00;;;;;;5058257;28;20066;-75
2022/04/13 06:22:38;;;;;;;17.00;10.02;;;13.50;90.00;;;;;;5075003;28;20028;-75
2022/04/13 06:25:04;;;;;;;16.90;10.43;;;13.60;90.00;;;;;;5092616;28;20069;-74
2022/04/13 06:27:29;;;;;;;16.10;9.10;;;13.60;90.00;;;;;;5058454;28;20177;-75
2022/04/13 06:29:55;;;;;;;17.98;10.90;;;13.60;90.10;;;;;;5093307;28;20527;-74
2022/04/13 06:32:21;;;;;;;18.05;10.05;;;13.70;90.10;;;;;;5058511;28;20028;-74
2022/04/13 06:34:46;;;;;;;16.08;9.73;;;13.70;90.00;;;;;;5075062;28;20055;-74
2022/04/13 06:37:12;;;;;;;19.20;9.90;;;13.80;90.30;;;;;;5087783;28;20077;-74
2022/04/13 06:39:37;;;;;;;21.05;11.45;;;13.80;90.00;;;;;;5054752;28;20067;-74
2022/04/13 06:42:03;;;;;;;16.65;10.85;;;13.90;90.10;;;;;;5054797;28;20028;-74
2022/04/13 06:44:29;;;;;;;18.55;11.10;;;13.90;90.10;;;;;;5054759;28;20618;-75
2022/04/13 06:46:55;;;;;;;16.48;12.07;;;14.00;90.20;;;;;;5055052;28;20021;-74
2022/04/13 06:49:21;;;;;;;18.40;11.60;;;14.10;90.20;;;;;;5055253;28;20025;-75
2022/04/13 06:51:46;;;;;;;18.98;11.95;;;14.10;90.20;;;;;;5071667;28;20039;-75
2022/04/13 06:54:12;;;;;;;18.67;11.48;;;14.20;90.20;;;;;;5071620;28;20036;-75
2022/04/13 06:56:39;;;;;;;19.88;12.40;;;14.20;90.20;;;;;;5055128;28;20087;-76
2022/04/13 06:59:05;;;;;;;19.48;12.27;;;14.20;90.20;;;;;;5055623;28;20104;-76
2022/04/13 07:01:31;;;;;;;20.75;13.20;;;14.30;90.30;;;;;;5075666;28;20090;-74
2022/04/13 07:03:57;;;;;;;19.92;13.10;;;14.40;90.30;;;;;;5075408;28;20036;-75
2022/04/13 07:06:22;;;;;;;22.35;13.35;;;14.40;90.40;;;;;;5059516;28;20025;-75
2022/04/13 07:08:48;;;;;;;21.40;13.88;;;14.50;90.40;;;;;;5058629;28;20083;-75
2022/04/13 07:11:14;;;;;;;20.85;14.85;;;14.50;90.30;;;;;;5058726;28;20035;-75
2022/04/13 07:13:39;;;;;;;25.05;13.75;;;14.50;90.30;;;;;;5075260;28;20032;-75
2022/04/13 07:16:05;;;;;;;21.85;14.23;;;14.60;90.30;;;;;;5075180;28;20029;-75
2022/04/13 07:18:31;;;;;;;23.42;13.77;;;14.70;90.30;;;;;;5075299;28;20024;-74
2022/04/13 07:20:56;;;;;;;18.27;12.93;;;14.70;90.30;;;;;;5067118;28;20032;-75
2022/04/13 07:23:22;;;;;;;24.60;13.75;;;14.70;90.20;;;;;;5078734;28;20028;-75
2022/04/13 07:25:48;;;;;;;21.15;13.73;;;14.80;90.20;;;;;;5058102;28;20485;-75
2022/04/13 07:28:13;;;;;;;24.40;14.50;;;14.90;90.20;;;;;;5076230;28;20024;-75
2022/04/13 07:30:39;;;;;;;22.70;13.35;;;15.00;90.20;;;;;;5041630;28;20028;-76
2022/04/13 07:33:05;;;;;;;20.27;12.80;;;15.00;90.20;;;;;;5058563;28;20086;-75
2022/04/13 07:35:31;;;;;;;22.42;13.23;;;15.00;90.20;;;;;;5041557;28;20033;-74
2022/04/13 07:37:57;;;;;;;20.42;12.60;;;15.10;90.20;;;;;;5058476;28;20036;-75
2022/04/13 07:40:24;;;;;;;26.65;13.73;;;15.20;90.20;;;;;;5057973;28;20436;-73
2022/04/13 07:42:50;;;;;;;22.77;14.07;;;15.20;90.20;;;;;;5057989;28;20029;-73
2022/04/13 07:45:16;;;;;;;19.30;13.07;;;15.30;90.10;;;;;;5041726;28;20032;-73
2022/04/13 07:47:41;;;;;;;22.38;14.10;;;15.40;90.10;;;;;;5057972;28;20036;-73
2022/04/13 07:50:12;;;;;;;18.70;14.05;;;15.40;90.00;;;;;;5041275;28;20074;-73
2022/04/13 07:52:40;;;;;;;21.00;13.98;;;15.50;89.90;;;;;;5057997;28;20020;-76
2022/04/13 07:55:09;;;;;;;21.27;13.38;;;15.50;89.80;;;;;;5057950;28;20468;-73
2022/04/13 07:57:39;;;;;;;23.35;14.43;;;15.50;89.60;;;;;;5057704;28;20058;-74
2022/04/13 08:00:06;;;;;;;21.73;14.07;;;15.50;89.60;;;;;;5057482;28;20378;-73
2022/04/13 08:02:34;;;;;;;24.13;14.30;;;15.50;89.50;;;;;;5041085;28;20399;-74
2022/04/13 08:05:00;;;;;;;19.92;15.00;;;15.60;89.50;;;;;;5058593;28;20028;-74
2022/04/13 08:07:26;;;;;;;18.70;14.38;;;15.60;89.50;;;;;;5041158;28;20166;-82
2022/04/13 08:09:52;;;;;;;25.00;14.93;;;15.60;89.50;;;;;;5040838;28;20076;-82
2022/04/13 08:12:18;;;;;;;25.20;14.82;;;15.70;89.50;;;;;;5056578;28;20108;-81
2022/04/13 08:14:47;;;;;;;22.92;14.20;;;15.70;89.50;;;;;;5040854;28;20603;-82
2022/04/13 08:17:13;;;;;;;20.52;13.73;;;15.80;89.50;;;;;;5075283;28;20425;-81
2022/04/13 08:19:39;;;;;;;19.55;12.75;;;15.80;89.40;;;;;;5075170;28;20028;-83
2022/04/13 08:22:05;;;;;;;20.90;13.38;;;15.90;89.50;;;;;;5057418;28;20369;-81
2022/04/13 08:24:31;;;;;;;17.65;11.32;;;15.90;89.80;;;;;;5057189;28;20024;-83
2022/04/13 08:26:58;;;;;;;17.35;9.88;;;16.00;89.20;;;;;;5040645;28;20125;-82
2022/04/13 08:29:25;;;;;;;17.45;10.10;;;16.10;88.90;;;;;;5074993;28;20029;-81
2022/04/13 08:31:50;;;;;;;16.20;9.57;;;16.20;88.60;;;;;;5057149;28;20491;-81
2022/04/13 08:34:16;;;;;;;13.90;9.10;;;16.20;88.20;;;;;;5057172;28;20060;-82
2022/04/13 08:36:42;;;;;;;15.10;8.10;;;16.20;88.00;;;;;;5040399;28;20113;-83
2022/04/13 08:39:14;;;;;;;12.75;8.32;;;16.30;87.80;;;;;;5057089;28;20380;-84
2022/04/13 08:41:51;;;;;;;13.23;7.65;;;16.30;87.50;;;;;;5057913;28;20388;-81
2022/04/13 08:44:22;;;;;;;12.40;7.63;;;16.40;87.20;;;;;;5057260;28;20025;-84
2022/04/13 08:46:50;;;;;;;13.48;7.10;;;16.40;86.80;;;;;;5056931;28;20024;-81
2022/04/13 08:49:17;;;;;;;12.35;7.07;;;16.50;86.50;;;;;;5056885;28;20029;-83
2022/04/13 08:51:44;;;;;;;11.43;6.07;;;16.60;86.20;;;;;;5056356;28;20037;-83
2022/04/13 08:54:20;;;;;;;11.82;6.20;;;16.60;85.60;;;;;;5040147;28;20128;-79
2022/04/13 08:56:54;;;;;;;11.63;6.07;;;16.70;85.30;;;;;;5056578;28;20021;-84
2022/04/13 09:00:03;;;;;;;10.45;5.82;;;16.70;84.80;;;;;;5056384;28;20062;-82
2022/04/13 09:02:38;;;;;;;13.02;5.47;;;16.80;84.50;;;;;;5056471;28;20029;-82
2022/04/13 09:05:12;;;;;;;9.93;5.45;;;16.90;84.00;;;;;;5074421;28;20032;-83
2022/04/13 09:07:39;;;;;;;;;;;17.00;83.90;;;;;;5058005;28;20040;-84
2022/04/13 09:10:10;;;;;;;8.63;4.10;;;17.00;83.70;;;;;;5074187;28;19970;-82
2022/04/13 09:12:36;;;;;;;8.63;3.92;;;17.10;83.50;;;;;;5056573;28;20024;-84
2022/04/13 09:15:04;;;;;;;10.00;4.07;;;17.20;83.10;;;;;;5074158;28;20527;-83
2022/04/13 09:17:30;;;;;;;8.02;3.75;;;17.30;82.60;;;;;;5073858;28;20031;-82
2022/04/13 09:19:58;;;;;;;9.88;4.45;;;17.40;82.10;;;;;;5055967;28;20028;-85
2022/04/13 09:22:24;;;;;;;8.85;4.35;;;17.50;81.90;;;;;;5073805;28;20039;-81
2022/04/13 09:24:57;;;;;;;7.85;3.92;;;17.50;81.50;;;;;;5074006;28;20499;-85
2022/04/13 09:27:23;;;;;;;9.13;3.50;;;17.70;81.30;;;;;;5056614;28;20048;-85
2022/04/13 09:29:50;;;;;;;6.22;3.53;;;17.80;80.90;;;;;;5039534;28;20027;-87
2022/04/13 09:32:17;;;;;;;9.63;3.25;;;17.90;80.40;;;;;;5056505;28;20023;-79
2022/04/13 09:34:43;;;;;;;8.40;3.35;;;18.00;80.00;;;;;;5056161;28;20550;-78
2022/04/13 09:37:10;;;;;;;6.50;3.10;;;18.10;79.70;;;;;;5074555;28;20028;-87
2022/04/13 09:39:36;;;;;;;6.40;2.95;;;18.20;79.30;;;;;;5056076;28;20028;-78
2022/04/13 09:42:03;;;;;;;8.48;3.30;;;18.40;78.80;;;;;;5073774;28;20473;-79
2022/04/13 09:44:30;;;;;;;6.43;3.38;;;18.50;78.40;;;;;;5073622;28;20051;-75
2022/04/13 09:47:29;;;;;;;5.85;3.10;;;18.60;78.00;;;;;;5073995;28;20495;-80
2022/04/13 09:49:55;;;;;;;7.13;3.50;;;18.80;77.50;;;;;;5044659;28;20093;-79
2022/04/13 09:52:39;;;;;;;7.80;3.88;;;18.90;77.30;;;;;;5039051;28;20090;-79
2022/04/13 09:55:07;;;;;;;8.90;3.85;;;19.00;76.70;;;;;;5055493;28;20081;-80
2022/04/13 09:57:33;;;;;;;7.25;3.78;;;19.00;76.50;;;;;;5055366;28;20207;-77
2022/04/13 10:00:01;;;;;;;9.55;4.20;;;19.00;76.20;;;;;;5039062;28;20391;-78
2022/04/13 10:02:37;;;;;;;5.78;4.13;;;19.00;75.70;;;;;;5073355;28;20435;-79
2022/04/13 10:05:08;;;;;;;7.93;4.32;;;19.00;75.70;;;;;;5055399;28;20503;-77
2022/04/13 10:07:34;;;;;;;8.27;3.75;;;19.00;75.60;;;;;;5055549;28;20056;-78
2022/04/13 10:10:01;;;;;;;10.23;4.32;;;19.00;75.40;;;;;;5054962;28;20049;-79
2022/04/13 10:12:27;;;;;;;9.63;3.20;;;18.90;75.70;;;;;;5055488;28;20032;-77
2022/04/13 10:15:05;;;;;;;9.88;3.65;;;18.80;74.80;;;;;;5055286;28;20036;-79
2022/04/13 10:17:33;;;;;;;6.25;2.88;;;18.70;74.60;;;;;;5041982;28;20031;-86
2022/04/13 10:19:59;;;;;;;8.18;2.85;;;18.60;74.60;;;;;;5057030;28;20040;-85
2022/04/13 10:22:25;;;;;;;6.57;2.72;;;18.60;74.50;;;;;;5039354;28;20029;-86
2022/04/13 10:24:51;;;;;;;5.05;2.90;;;18.60;74.40;;;;;;5039729;28;20387;-85
2022/04/13 10:27:19;;;;;;;7.95;3.45;;;18.60;74.40;;;;;;5073691;28;20021;-85
2022/04/13 10:29:46;;;;;;;10.80;3.88;;;18.60;74.30;;;;;;5039358;28;20024;-86
2022/04/13 10:32:18;;;;;;;9.68;3.60;;;18.60;74.40;;;;;;5073285;28;20496;-87
2022/04/13 10:34:48;;;;;;;7.72;3.58;;;18.60;74.40;;;;;;5057648;28;20070;-88
2022/04/13 10:37:17;;;;;;;9.40;3.78;;;18.60;74.20;;;;;;5042709;28;20125;-85
2022/04/13 10:39:45;;;;;;;5.82;2.97;;;18.60;74.10;;;;;;5077694;28;20099;-81
2022/04/13 10:42:12;;;;;;;8.75;3.55;;;18.60;74.10;;;;;;5077644;28;20037;-87
2022/04/13 10:44:52;;;;;;;8.43;2.45;;;18.60;74.00;;;;;;5059573;28;20036;-86
2022/04/13 10:47:24;;;;;;;7.05;2.42;;;18.60;74.50;;;;;;5059634;28;20090;-85
2022/04/13 10:50:00;;;;;;;4.97;2.20;;;18.50;73.50;;;;;;5077856;28;20080;-86
2022/04/13 10:52:56;;;;;;;5.20;2.25;;;18.50;73.30;;;;;;5059338;28;20024;-86
2022/04/13 10:55:23;;;;;;;5.18;1.88;;;18.40;73.30;;;;;;5059812;28;20040;-87
2022/04/13 10:58:10;;;;;;;5.35;2.40;;;18.40;73.50;;;;;;5058744;28;20032;-86
2022/04/13 11:00:39;;;;;;;5.00;2.03;;;18.30;73.40;;;;;;5077096;28;20080;-84
2022/04/13 11:03:06;;;;;;;7.68;2.65;;;18.30;73.50;;;;;;5076788;28;20385;-85
2022/04/13 11:05:33;;;;;;;6.75;2.40;;;18.30;74.10;;;;;;5058615;28;20115;-86
2022/04/13 11:08:23;;;;;;;6.22;2.65;;;18.40;73.80;;;;;;5077638;28;20017;-85
2022/04/13 11:10:50;;;;;;;6.93;3.40;;;18.40;74.40;;;;;;5059426;28;20492;-81
2022/04/13 11:13:17;;;;;;;7.15;3.38;;;18.40;73.90;;;;;;5063347;28;20013;-81
2022/04/13 11:15:48;;;;;;;6.68;3.47;;;18.40;74.20;;;;;;5064312;28;20048;-82
2022/04/13 11:18:18;;;;;;;7.72;3.75;;;18.40;74.40;;;;;;5061584;28;20388;-77
2022/04/13 11:21:02;;;;;;;9.38;3.47;;;18.40;74.60;;;;;;5060151;28;20024;-82
2022/04/13 11:23:50;;;;;;;6.40;3.50;;;18.40;74.60;;;;;;5061392;28;20039;-85
2022/04/13 11:26:27;;;;;;;6.20;2.88;;;18.50;74.70;;;;;;5059393;28;20377;-84
2022/04/13 11:29:21;;;;;;;6.82;2.80;;;18.50;74.60;;;;;;5059026;28;20013;-86
2022/04/13 11:32:02;;;;;;;8.00;3.30;;;18.50;74.60;;;;;;5056340;28;20098;-86
2022/04/13 11:34:49;;;;;;;8.68;4.28;;;18.60;74.40;;;;;;5058735;28;20037;-81
2022/04/13 11:37:23;;;;;;;8.73;3.65;;;18.60;73.80;;;;;;5076668;28;20086;-83
2022/04/13 11:39:50;;;;;;;;;;;18.60;73.70;;;;;;5059148;28;20021;-82
2022/04/13 11:42:28;;;;;;;6.90;2.50;;;18.50;73.60;;;;;;5076386;28;19905;-85
2022/04/13 11:45:15;;;;;;;10.50;3.20;;;18.50;73.60;;;;;;5076114;28;20021;-82
2022/04/13 11:47:51;;;;;;;7.38;3.35;;;18.50;73.60;;;;;;5076239;28;20497;-85
2022/04/13 11:50:19;;;;;;;10.57;3.30;;;18.50;73.60;;;;;;5058595;28;20045;-84
2022/04/13 11:52:49;;;;;;;8.32;3.33;;;18.50;73.60;;;;;;5058594;28;20534;-85
2022/04/13 11:55:18;;;;;;;9.48;4.30;;;18.50;73.60;;;;;;5058667;28;20016;-83
2022/04/13 11:58:02;;;;;;;9.70;2.92;;;18.50;73.70;;;;;;5058934;28;20032;-83
2022/04/13 12:00:54;;;;;;;8.45;3.67;;;18.50;73.60;;;;;;5059477;28;20447;-86
2022/04/13 12:03:33;;;;;;;7.15;2.65;;;18.50;73.60;;;;;;5058136;28;20036;-83
2022/04/13 12:06:22;;;;;;;8.68;3.08;;;18.40;73.70;;;;;;5057841;28;20104;-86
2022/04/13 12:08:50;;;;;;;10.18;3.65;;;18.40;73.80;;;;;;5058495;28;20444;-84
2022/04/13 12:11:21;;;;;;;8.63;3.72;;;18.40;74.00;;;;;;5076486;28;20481;-86
2022/04/13 12:13:49;;;;;;;9.60;3.65;;;18.40;74.20;;;;;;5075388;28;20020;-77
2022/04/13 12:16:38;;;;;;;9.65;3.38;;;18.40;74.30;;;;;;5057273;28;20017;-77
2022/04/13 12:19:11;;;;;;;11.70;3.85;;;18.40;74.40;;;;;;5057622;28;20021;-77
2022/04/13 12:21:39;;;;;;;9.98;2.95;;;18.40;74.30;;;;;;5075200;28;20025;-76
2022/04/13 12:24:07;;;;;;;8.30;3.53;;;18.40;74.20;;;;;;5057177;28;20115;-75
2022/04/13 12:26:33;;;;;;;6.75;3.28;;;18.40;74.30;;;;;;5040983;28;20078;-76
2022/04/13 12:29:00;;;;;;;8.93;2.63;;;18.40;74.30;;;;;;5075262;28;20024;-75
2022/04/13 12:31:27;;;;;;;6.63;3.05;;;18.40;74.20;;;;;;5057266;28;20025;-77
2022/04/13 12:33:58;;;;;;;11.30;3.38;;;18.40;74.00;;;;;;5057574;28;20048;-77
2022/04/13 12:36:24;;;;;;;7.97;2.60;;;18.40;74.70;;;;;;5074916;28;20021;-76
2022/04/13 12:38:54;;;;;;;6.82;2.88;;;18.40;74.00;;;;;;5057190;28;20075;-77
2022/04/13 12:41:21;;;;;;;7.35;2.22;;;18.30;73.90;;;;;;5041064;28;20476;-76
2022/04/13 12:43:50;;;;;;;7.60;2.47;;;18.30;73.90;;;;;;5057402;28;20112;-75
2022/04/13 12:46:20;;;;;;;6.60;2.08;;;18.30;73.80;;;;;;5056750;28;20032;-76